Aérodrome :
LOGIN :

S'inscrire | Disclaimer

   EN    FR    IT 

 










Légende :    VFR   VFR Marginal   IFR   IFR Intensif   IFR Très Intensif
Visi : 
Plafond : 
>= 8 km
>= 3000ft
5 à 8 km
1000 à 3000 ft
1500m à 5 km
500 à 1000 ft
800 à 1500m
200 à 500 ft
< 800m
< 200 ft
Symboles :   Orages  Brouillard  Fortes neiges  Fortes précipitations  Vent > 20 kt
SIGMETs :   Divers  Orages  Givrage  Turbulence  Onde Orograph.  Cendres Volcan.







- Altitude de l'aérodrome : 1416 ft
- Code IATA : ZRH


LSZH - Zurich

DERNIER METAR :
  • 241850Z 05004KT 9999 FEW060 SCT180 19/09 Q1014 NOSIG

METARs EXPIRÉS :
  • 241820Z 04007KT 9999 FEW060 SCT190 20/09 Q1013 NOSIG
  • 241750Z 05007KT 9999 FEW060 BKN190 21/10 Q1013 NOSIG
  • 241720Z 02007KT 9999 FEW060 BKN190 21/10 Q1013 NOSIG
  • 241650Z 36007KT 330V030 9999 FEW060 BKN180 21/10 Q1013 NOSIG
  • 241620Z 35009KT 9999 FEW060 BKN180 21/10 Q1013 NOSIG
  • 241550Z VRB03KT 9999 FEW060 BKN180 22/07 Q1014 NOSIG

TAF TAF LSZH
Valide du 24 à 18h jusqu'au 26 à 00h UTC


241725Z 2418/2524 VRB03KT 9999 FEW050 BKN250 TX20/2515Z TN08/2505Z
TEMPO 2418/2506 CAVOK
TEMPO 2507/2524 SHRA FEW050TCU
PROB40
TEMPO 2510/2521 26012G25KT 4000 TSRA SCT050CB
ATIS : +41 43 816 2295 (DEP) +41 43 816 2294 (ARR)
Pas de NOTAMs connus pour ce terrain.



MET'MAP, la Météo Aéronautique d'un coup d'oeil ! - Copyright ORBIFLY Décembre 2007 - Disclaimer

ORBIFLY MET'MAP TEAM :

Programmation & Développement : Alexandra Zaïnal
Conception & Développement : Baudouin d'Aumeries
Co-Programmation & Développement : Marc-Olivier Méhu
Soutien technique & logistique : Manuel Goepfert

Contact : metmap@orbifly.com




SOURCES & CREDITS :

   NOAA